sensor_id;sensor_type;location;lat;lon;timestamp;pressure;altitude;pressure_sealevel;temperature;humidity
49072;BME280;52656;52.610;10.236;2023-04-02T00:08:05;100855.00;;;1.87;81.07
49072;BME280;52656;52.610;10.236;2023-04-02T00:10:57;100870.66;;;1.96;81.09
49072;BME280;52656;52.610;10.236;2023-04-02T00:13:44;100876.75;;;1.86;81.90
49072;BME280;52656;52.610;10.236;2023-04-02T00:16:13;100885.44;;;1.85;78.94
49072;BME280;52656;52.610;10.236;2023-04-02T00:18:46;100887.19;;;1.89;78.74
49072;BME280;52656;52.610;10.236;2023-04-02T00:21:23;100896.81;;;1.56;77.60
49072;BME280;52656;52.610;10.236;2023-04-02T00:23:53;100901.16;;;1.78;78.06
49072;BME280;52656;52.610;10.236;2023-04-02T00:28:58;100909.84;;;1.79;77.04
49072;BME280;52656;52.610;10.236;2023-04-02T00:31:24;100909.88;;;1.68;77.46
49072;BME280;52656;52.610;10.236;2023-04-02T00:33:51;100914.19;;;1.68;76.88
49072;BME280;52656;52.610;10.236;2023-04-02T00:36:18;100915.06;;;1.70;77.34
49072;BME280;52656;52.610;10.236;2023-04-02T00:38:47;100931.59;;;1.58;77.21
49072;BME280;52656;52.610;10.236;2023-04-02T00:41:24;100932.47;;;1.57;77.85
49072;BME280;52656;52.610;10.236;2023-04-02T00:43:51;100928.13;;;1.80;77.90
49072;BME280;52656;52.610;10.236;2023-04-02T00:46:20;100929.00;;;1.87;77.81
49072;BME280;52656;52.610;10.236;2023-04-02T00:51:25;100944.69;;;1.73;79.18
49072;BME280;52656;52.610;10.236;2023-04-02T00:53:54;100940.31;;;1.86;78.47
49072;BME280;52656;52.610;10.236;2023-04-02T00:56:26;100940.34;;;1.81;79.41
49072;BME280;52656;52.610;10.236;2023-04-02T00:58:54;100951.63;;;1.76;79.83
49072;BME280;52656;52.610;10.236;2023-04-02T01:01:27;100946.38;;;2.03;79.96
49072;BME280;52656;52.610;10.236;2023-04-02T01:04:00;100950.75;;;1.83;79.66
49072;BME280;52656;52.610;10.236;2023-04-02T01:06:31;100953.34;;;1.98;79.85
49072;BME280;52656;52.610;10.236;2023-04-02T01:12:02;100969.91;;;1.90;79.00
49072;BME280;52656;52.610;10.236;2023-04-02T01:14:48;100969.03;;;2.03;77.86
49072;BME280;52656;52.610;10.236;2023-04-02T01:22:51;100993.41;;;1.62;77.95
49072;BME280;52656;52.610;10.236;2023-04-02T01:25:32;100995.16;;;1.85;77.84
49072;BME280;52656;52.610;10.236;2023-04-02T01:28:06;100994.28;;;1.81;78.74
49072;BME280;52656;52.610;10.236;2023-04-02T01:30:34;101008.22;;;1.69;77.56
49072;BME280;52656;52.610;10.236;2023-04-02T01:33:01;101004.75;;;1.83;76.11
49072;BME280;52656;52.610;10.236;2023-04-02T01:35:31;101006.47;;;1.61;76.54
49072;BME280;52656;52.610;10.236;2023-04-02T01:38:06;101006.47;;;1.64;76.27
49072;BME280;52656;52.610;10.236;2023-04-02T01:40:46;101011.69;;;1.90;76.22
49072;BME280;52656;52.610;10.236;2023-04-02T01:43:23;101022.97;;;1.52;76.00
49072;BME280;52656;52.610;10.236;2023-04-02T01:45:52;101028.22;;;1.61;75.44
49072;BME280;52656;52.610;10.236;2023-04-02T01:48:23;101031.72;;;1.60;74.88
49072;BME280;52656;52.610;10.236;2023-04-02T01:50:52;101030.84;;;1.76;74.52
49072;BME280;52656;52.610;10.236;2023-04-02T01:53:23;101036.06;;;1.70;74.82
49072;BME280;52656;52.610;10.236;2023-04-02T01:55:52;101040.44;;;1.68;74.56
49072;BME280;52656;52.610;10.236;2023-04-02T01:58:21;101043.03;;;1.59;74.84
49072;BME280;52656;52.610;10.236;2023-04-02T02:00:58;101054.31;;;1.58;75.12
49072;BME280;52656;52.610;10.236;2023-04-02T02:03:26;101050.00;;;1.69;74.42
49072;BME280;52656;52.610;10.236;2023-04-02T02:05:52;101058.72;;;1.77;74.21
49072;BME280;52656;52.610;10.236;2023-04-02T02:08:38;101064.78;;;1.61;74.12
49072;BME280;52656;52.610;10.236;2023-04-02T02:11:05;101063.03;;;1.63;74.07
49072;BME280;52656;52.610;10.236;2023-04-02T02:13:31;101064.81;;;1.73;73.80
49072;BME280;52656;52.610;10.236;2023-04-02T02:15:58;101070.91;;;1.80;74.07
49072;BME280;52656;52.610;10.236;2023-04-02T02:18:24;101080.44;;;1.67;73.15
49072;BME280;52656;52.610;10.236;2023-04-02T02:20:52;101074.41;;;1.77;73.32
49072;BME280;52656;52.610;10.236;2023-04-02T02:23:17;101076.09;;;1.66;72.20
49072;BME280;52656;52.610;10.236;2023-04-02T02:25:45;101080.44;;;1.60;73.00
49072;BME280;52656;52.610;10.236;2023-04-02T02:28:24;101079.56;;;1.54;73.49
49072;BME280;52656;52.610;10.236;2023-04-02T02:31:01;101083.94;;;1.65;73.37
49072;BME280;52656;52.610;10.236;2023-04-02T02:33:35;101099.59;;;1.66;73.72
49072;BME280;52656;52.610;10.236;2023-04-02T02:36:04;101102.22;;;1.75;72.81
49072;BME280;52656;52.610;10.236;2023-04-02T02:41:06;101113.50;;;1.62;73.77
49072;BME280;52656;52.610;10.236;2023-04-02T02:43:37;101113.59;;;1.88;72.84
49072;BME280;52656;52.610;10.236;2023-04-02T02:46:06;101117.97;;;2.01;72.97
49072;BME280;52656;52.610;10.236;2023-04-02T02:48:38;101127.50;;;1.78;72.70
49072;BME280;52656;52.610;10.236;2023-04-02T02:51:08;101135.31;;;1.70;72.13
49072;BME280;52656;52.610;10.236;2023-04-02T02:53:44;101133.59;;;1.80;72.44
49072;BME280;52656;52.610;10.236;2023-04-02T02:56:11;101137.06;;;1.80;72.53
49072;BME280;52656;52.610;10.236;2023-04-02T02:58:36;101133.59;;;1.80;72.31
49072;BME280;52656;52.610;10.236;2023-04-02T03:01:03;101144.03;;;1.80;71.61
49072;BME280;52656;52.610;10.236;2023-04-02T03:03:31;101134.47;;;1.88;71.81
49072;BME280;52656;52.610;10.236;2023-04-02T03:06:09;101149.28;;;1.92;71.18
49072;BME280;52656;52.610;10.236;2023-04-02T03:08:44;101155.34;;;1.73;71.06
49072;BME280;52656;52.610;10.236;2023-04-02T03:13:59;101159.69;;;1.80;71.23
49072;BME280;52656;52.610;10.236;2023-04-02T03:16:32;101165.78;;;1.80;71.81
49072;BME280;52656;52.610;10.236;2023-04-02T03:19:28;101171.88;;;1.81;71.51
49072;BME280;52656;52.610;10.236;2023-04-02T03:22:14;101164.06;;;1.84;71.48
49072;BME280;52656;52.610;10.236;2023-04-02T03:24:58;101178.81;;;1.71;72.11
49072;BME280;52656;52.610;10.236;2023-04-02T03:27:33;101184.97;;;1.84;72.75
49072;BME280;52656;52.610;10.236;2023-04-02T03:33:04;101204.13;;;1.81;71.10
49072;BME280;52656;52.610;10.236;2023-04-02T03:35:56;101209.31;;;1.77;70.97
49072;BME280;52656;52.610;10.236;2023-04-02T03:38:38;101213.69;;;1.81;70.05
49072;BME280;52656;52.610;10.236;2023-04-02T03:41:15;101219.78;;;1.85;69.81
49072;BME280;52656;52.610;10.236;2023-04-02T03:43:53;101237.22;;;1.87;69.80
49072;BME280;52656;52.610;10.236;2023-04-02T03:46:40;101236.31;;;1.79;70.63
49072;BME280;52656;52.610;10.236;2023-04-02T03:49:13;101245.09;;;2.02;71.90
49072;BME280;52656;52.610;10.236;2023-04-02T03:51:53;101244.22;;;1.91;71.09
49072;BME280;52656;52.610;10.236;2023-04-02T03:54:21;101250.28;;;1.90;70.52
49072;BME280;52656;52.610;10.236;2023-04-02T03:56:47;101255.50;;;1.90;70.79
49072;BME280;52656;52.610;10.236;2023-04-02T03:59:43;101258.09;;;1.86;70.66
49072;BME280;52656;52.610;10.236;2023-04-02T04:04:50;101258.94;;;1.80;71.70
49072;BME280;52656;52.610;10.236;2023-04-02T04:07:28;101271.19;;;1.87;71.05
49072;BME280;52656;52.610;10.236;2023-04-02T04:09:55;101275.53;;;1.87;70.51
49072;BME280;52656;52.610;10.236;2023-04-02T04:12:30;101286.84;;;1.89;70.51
49072;BME280;52656;52.610;10.236;2023-04-02T04:15:11;101277.38;;;2.04;69.52
49072;BME280;52656;52.610;10.236;2023-04-02T04:20:48;101294.63;;;1.75;69.15
49072;BME280;52656;52.610;10.236;2023-04-02T04:23:19;101305.16;;;1.89;68.60
49072;BME280;52656;52.610;10.236;2023-04-02T04:25:59;101301.66;;;1.87;68.98
49072;BME280;52656;52.610;10.236;2023-04-02T04:31:39;101326.75;;;1.60;69.18
49072;BME280;52656;52.610;10.236;2023-04-02T04:34:14;101315.47;;;1.64;67.18
49072;BME280;52656;52.610;10.236;2023-04-02T04:36:46;101322.50;;;1.76;68.23
49072;BME280;52656;52.610;10.236;2023-04-02T04:39:42;101326.00;;;1.78;68.24
49072;BME280;52656;52.610;10.236;2023-04-02T04:42:17;101330.31;;;1.76;68.77
49072;BME280;52656;52.610;10.236;2023-04-02T04:44:58;101352.75;;;1.43;68.52
49072;BME280;52656;52.610;10.236;2023-04-02T04:47:28;101340.78;;;1.74;68.26
49072;BME280;52656;52.610;10.236;2023-04-02T04:50:01;101352.94;;;1.71;67.39
49072;BME280;52656;52.610;10.236;2023-04-02T04:52:32;101352.06;;;1.70;68.21
49072;BME280;52656;52.610;10.236;2023-04-02T04:55:00;101358.22;;;1.85;68.52
49072;BME280;52656;52.610;10.236;2023-04-02T04:57:36;101365.19;;;1.84;69.19
49072;BME280;52656;52.610;10.236;2023-04-02T05:02:39;101376.44;;;1.69;69.56
49072;BME280;52656;52.610;10.236;2023-04-02T05:05:15;101380.94;;;1.95;68.71
49072;BME280;52656;52.610;10.236;2023-04-02T05:07:47;101376.56;;;1.92;69.30
49072;BME280;52656;52.610;10.236;2023-04-02T05:10:20;101370.53;;;2.04;69.28
49072;BME280;52656;52.610;10.236;2023-04-02T05:13:16;101392.19;;;1.83;68.66
49072;BME280;52656;52.610;10.236;2023-04-02T05:18:27;101392.19;;;1.83;68.27
49072;BME280;52656;52.610;10.236;2023-04-02T05:20:57;101403.69;;;2.10;68.35
49072;BME280;52656;52.610;10.236;2023-04-02T05:23:29;101408.91;;;2.10;67.92
49072;BME280;52656;52.610;10.236;2023-04-02T05:31:30;101422.81;;;2.05;67.70
49072;BME280;52656;52.610;10.236;2023-04-02T05:34:02;101427.09;;;1.94;67.56
49072;BME280;52656;52.610;10.236;2023-04-02T05:36:28;101428.09;;;2.18;67.61
49072;BME280;52656;52.610;10.236;2023-04-02T05:38:56;101433.34;;;2.22;68.29
49072;BME280;52656;52.610;10.236;2023-04-02T05:41:28;101440.31;;;2.19;68.06
49072;BME280;52656;52.610;10.236;2023-04-02T05:44:13;101442.88;;;2.10;68.03
49072;BME280;52656;52.610;10.236;2023-04-02T05:46:46;101446.34;;;2.05;67.45
49072;BME280;52656;52.610;10.236;2023-04-02T05:49:41;101455.25;;;2.38;67.32
49072;BME280;52656;52.610;10.236;2023-04-02T05:52:05;101451.72;;;2.35;67.00
49072;BME280;52656;52.610;10.236;2023-04-02T05:55:20;101451.72;;;2.35;67.36
49072;BME280;52656;52.610;10.236;2023-04-02T05:57:50;101459.63;;;2.44;67.96
49072;BME280;52656;52.610;10.236;2023-04-02T06:00:23;101455.25;;;2.41;67.83
49072;BME280;52656;52.610;10.236;2023-04-02T06:02:54;101458.72;;;2.40;67.85
49072;BME280;52656;52.610;10.236;2023-04-02T06:05:32;101465.72;;;2.44;67.67
49072;BME280;52656;52.610;10.236;2023-04-02T06:08:19;101474.44;;;2.45;67.87
49072;BME280;52656;52.610;10.236;2023-04-02T06:10:54;101475.34;;;2.50;67.70
49072;BME280;52656;52.610;10.236;2023-04-02T06:13:22;101479.69;;;2.49;67.95
49072;BME280;52656;52.610;10.236;2023-04-02T06:15:48;101488.44;;;2.56;67.58
49072;BME280;52656;52.610;10.236;2023-04-02T06:18:18;101495.38;;;2.46;66.83
49072;BME280;52656;52.610;10.236;2023-04-02T06:20:44;101509.41;;;2.59;67.52
49072;BME280;52656;52.610;10.236;2023-04-02T06:25:48;101517.25;;;2.59;66.96
49072;BME280;52656;52.610;10.236;2023-04-02T06:28:44;101525.97;;;2.60;67.70
49072;BME280;52656;52.610;10.236;2023-04-02T06:31:21;101532.19;;;2.83;67.37
49072;BME280;52656;52.610;10.236;2023-04-02T06:33:47;101528.69;;;2.84;67.88
49072;BME280;52656;52.610;10.236;2023-04-02T06:36:17;101543.47;;;2.73;67.58
49072;BME280;52656;52.610;10.236;2023-04-02T06:38:43;101551.31;;;2.68;66.79
49072;BME280;52656;52.610;10.236;2023-04-02T06:41:16;101545.28;;;2.81;66.88
49072;BME280;52656;52.610;10.236;2023-04-02T06:43:56;101553.13;;;2.88;67.25
49072;BME280;52656;52.610;10.236;2023-04-02T06:46:30;101560.03;;;2.75;67.59
49072;BME280;52656;52.610;10.236;2023-04-02T06:49:12;101562.66;;;2.73;66.43
49072;BME280;52656;52.610;10.236;2023-04-02T06:51:39;101565.34;;;2.89;65.88
49072;BME280;52656;52.610;10.236;2023-04-02T06:54:12;101571.44;;;2.83;66.57
49072;BME280;52656;52.610;10.236;2023-04-02T06:56:44;101582.75;;;2.85;65.29
49072;BME280;52656;52.610;10.236;2023-04-02T06:59:10;101581.91;;;2.81;66.08
49072;BME280;52656;52.610;10.236;2023-04-02T07:02:04;101595.81;;;2.80;65.27
49072;BME280;52656;52.610;10.236;2023-04-02T07:04:31;101595.84;;;2.82;64.95
49072;BME280;52656;52.610;10.236;2023-04-02T07:06:57;101595.09;;;3.04;64.60
49072;BME280;52656;52.610;10.236;2023-04-02T07:09:23;101595.06;;;3.01;64.16
49072;BME280;52656;52.610;10.236;2023-04-02T07:11:48;101613.22;;;2.72;64.13
49072;BME280;52656;52.610;10.236;2023-04-02T07:14:14;101611.50;;;2.73;64.16
49072;BME280;52656;52.610;10.236;2023-04-02T07:16:40;101617.72;;;2.93;63.42
49072;BME280;52656;52.610;10.236;2023-04-02T07:19:15;101623.84;;;2.98;65.18
49072;BME280;52656;52.610;10.236;2023-04-02T07:21:42;101617.84;;;3.15;64.43
49072;BME280;52656;52.610;10.236;2023-04-02T07:24:07;101629.09;;;3.01;64.83
49072;BME280;52656;52.610;10.236;2023-04-02T07:26:32;101629.16;;;3.17;63.84
49072;BME280;52656;52.610;10.236;2023-04-02T07:28:58;101633.50;;;3.05;63.56
49072;BME280;52656;52.610;10.236;2023-04-02T07:31:26;101638.78;;;3.15;63.91
49072;BME280;52656;52.610;10.236;2023-04-02T07:33:54;101644.06;;;3.22;64.15
49072;BME280;52656;52.610;10.236;2023-04-02T07:36:22;101646.63;;;3.18;63.75
49072;BME280;52656;52.610;10.236;2023-04-02T07:38:48;101659.69;;;3.13;63.08
49072;BME280;52656;52.610;10.236;2023-04-02T07:41:14;101647.53;;;3.20;62.61
49072;BME280;52656;52.610;10.236;2023-04-02T07:43:40;101663.28;;;3.27;62.88
49072;BME280;52656;52.610;10.236;2023-04-02T07:46:06;101660.69;;;3.33;63.72
49072;BME280;52656;52.610;10.236;2023-04-02T07:48:32;101666.81;;;3.40;63.73
49072;BME280;52656;52.610;10.236;2023-04-02T07:50:58;101667.81;;;3.68;64.09
49072;BME280;52656;52.610;10.236;2023-04-02T07:53:36;101671.28;;;3.61;63.13
49072;BME280;52656;52.610;10.236;2023-04-02T07:56:04;101682.66;;;3.69;62.81
49072;BME280;52656;52.610;10.236;2023-04-02T07:58:32;101679.94;;;3.49;62.32
49072;BME280;52656;52.610;10.236;2023-04-02T08:00:59;101689.59;;;3.61;61.10
49072;BME280;52656;52.610;10.236;2023-04-02T08:03:25;101696.66;;;3.76;61.98
49072;BME280;52656;52.610;10.236;2023-04-02T08:05:52;101707.88;;;3.46;60.94
49072;BME280;52656;52.610;10.236;2023-04-02T08:08:19;101698.25;;;3.42;61.50
49072;BME280;52656;52.610;10.236;2023-04-02T08:10:44;101701.88;;;3.70;61.66
49072;BME280;52656;52.610;10.236;2023-04-02T08:13:10;101701.03;;;3.72;61.53
49072;BME280;52656;52.610;10.236;2023-04-02T08:15:36;101708.81;;;3.60;60.46
49072;BME280;52656;52.610;10.236;2023-04-02T08:18:01;101715.88;;;3.78;60.73
49072;BME280;52656;52.610;10.236;2023-04-02T08:20:26;101720.22;;;3.74;60.24
49072;BME280;52656;52.610;10.236;2023-04-02T08:22:52;101725.53;;;3.87;60.26
49072;BME280;52656;52.610;10.236;2023-04-02T08:25:17;101735.06;;;3.75;60.29
49072;BME280;52656;52.610;10.236;2023-04-02T08:27:45;101728.91;;;3.67;59.78
49072;BME280;52656;52.610;10.236;2023-04-02T08:30:11;101732.59;;;4.01;60.38
49072;BME280;52656;52.610;10.236;2023-04-02T08:32:36;101738.72;;;4.02;59.95
49072;BME280;52656;52.610;10.236;2023-04-02T08:35:05;101742.09;;;3.82;59.99
49072;BME280;52656;52.610;10.236;2023-04-02T08:37:31;101740.47;;;4.06;60.15
49072;BME280;52656;52.610;10.236;2023-04-02T08:39:56;101748.34;;;4.17;59.87
49072;BME280;52656;52.610;10.236;2023-04-02T08:42:37;101750.19;;;4.51;60.16
49072;BME280;52656;52.610;10.236;2023-04-02T08:48:01;101759.78;;;4.40;57.40
49072;BME280;52656;52.610;10.236;2023-04-02T08:50:35;101771.16;;;4.42;58.03
49072;BME280;52656;52.610;10.236;2023-04-02T08:53:05;101767.69;;;4.66;58.17
49072;BME280;52656;52.610;10.236;2023-04-02T08:55:38;101769.44;;;4.50;57.87
49072;BME280;52656;52.610;10.236;2023-04-02T08:58:34;101776.44;;;4.65;57.45
49072;BME280;52656;52.610;10.236;2023-04-02T09:01:05;101792.16;;;4.57;55.50
49072;BME280;52656;52.610;10.236;2023-04-02T09:03:40;101786.88;;;4.34;55.39
49072;BME280;52656;52.610;10.236;2023-04-02T09:06:08;101785.19;;;4.85;54.91
49072;BME280;52656;52.610;10.236;2023-04-02T09:08:37;101786.09;;;5.09;55.54
49072;BME280;52656;52.610;10.236;2023-04-02T09:11:34;101782.59;;;5.05;53.92
49072;BME280;52656;52.610;10.236;2023-04-02T09:14:15;101795.72;;;5.01;53.55
49072;BME280;52656;52.610;10.236;2023-04-02T09:16:57;101787.75;;;5.63;52.58
49072;BME280;52656;52.610;10.236;2023-04-02T09:19:32;101788.16;;;6.68;51.02
49072;BME280;52656;52.610;10.236;2023-04-02T09:22:15;101781.28;;;6.44;50.97
49072;BME280;52656;52.610;10.236;2023-04-02T09:24:44;101806.88;;;6.10;50.74
49072;BME280;52656;52.610;10.236;2023-04-02T09:27:20;101802.44;;;6.21;51.43
49072;BME280;52656;52.610;10.236;2023-04-02T09:29:52;101810.28;;;6.29;50.10
49072;BME280;52656;52.610;10.236;2023-04-02T09:32:29;101811.28;;;6.02;51.65
49072;BME280;52656;52.610;10.236;2023-04-02T09:35:11;101826.16;;;6.13;50.64
49072;BME280;52656;52.610;10.236;2023-04-02T09:37:38;101820.88;;;6.20;51.87
49072;BME280;52656;52.610;10.236;2023-04-02T09:42:41;101822.59;;;6.27;51.25
49072;BME280;52656;52.610;10.236;2023-04-02T09:45:23;101836.66;;;6.17;51.26
49072;BME280;52656;52.610;10.236;2023-04-02T09:47:56;101846.13;;;6.60;50.57
49072;BME280;52656;52.610;10.236;2023-04-02T09:50:28;101844.50;;;6.41;49.72
49072;BME280;52656;52.610;10.236;2023-04-02T09:52:53;101851.59;;;6.10;49.72
49072;BME280;52656;52.610;10.236;2023-04-02T09:55:26;101858.50;;;6.35;49.17
49072;BME280;52656;52.610;10.236;2023-04-02T09:58:10;101863.81;;;6.37;50.71
49072;BME280;52656;52.610;10.236;2023-04-02T10:00:35;101860.00;;;6.87;48.52
49072;BME280;52656;52.610;10.236;2023-04-02T10:05:29;101861.06;;;6.55;49.15
49072;BME280;52656;52.610;10.236;2023-04-02T10:08:05;101855.94;;;7.58;48.70
49072;BME280;52656;52.610;10.236;2023-04-02T10:10:43;101849.19;;;8.11;47.52
49072;BME280;52656;52.610;10.236;2023-04-02T10:16:00;101857.50;;;9.12;45.50
49072;BME280;52656;52.610;10.236;2023-04-02T10:21:03;101858.50;;;9.57;43.80
49072;BME280;52656;52.610;10.236;2023-04-02T10:23:30;101857.72;;;9.52;43.50
49072;BME280;52656;52.610;10.236;2023-04-02T10:33:46;101867.84;;;8.69;47.53
49072;BME280;52656;52.610;10.236;2023-04-02T10:36:27;101882.28;;;7.57;47.45
49072;BME280;52656;52.610;10.236;2023-04-02T10:39:09;101881.47;;;7.52;46.82
49072;BME280;52656;52.610;10.236;2023-04-02T10:47:45;101893.09;;;7.28;48.40
49072;BME280;52656;52.610;10.236;2023-04-02T10:53:19;101895.59;;;7.46;48.56
49072;BME280;52656;52.610;10.236;2023-04-02T10:55:57;101896.88;;;7.96;46.94
49072;BME280;52656;52.610;10.236;2023-04-02T10:58:29;101894.16;;;8.02;46.28
49072;BME280;52656;52.610;10.236;2023-04-02T11:01:00;101879.16;;;8.78;46.54
49072;BME280;52656;52.610;10.236;2023-04-02T11:03:45;101875.19;;;9.61;43.28
49072;BME280;52656;52.610;10.236;2023-04-02T11:06:24;101884.47;;;9.34;43.00
49072;BME280;52656;52.610;10.236;2023-04-02T11:08:59;101893.41;;;9.78;46.05
49072;BME280;52656;52.610;10.236;2023-04-02T11:11:34;101881.22;;;9.16;43.84
49072;BME280;52656;52.610;10.236;2023-04-02T11:14:09;101889.22;;;9.12;45.26
49072;BME280;52656;52.610;10.236;2023-04-02T11:16:38;101887.38;;;9.17;43.51
49072;BME280;52656;52.610;10.236;2023-04-02T11:21:44;101899.00;;;9.07;45.08
49072;BME280;52656;52.610;10.236;2023-04-02T11:29:30;101905.94;;;9.12;43.49
49072;BME280;52656;52.610;10.236;2023-04-02T11:37:29;101913.88;;;9.12;42.81
49072;BME280;52656;52.610;10.236;2023-04-02T11:39:59;101916.69;;;9.57;43.28
49072;BME280;52656;52.610;10.236;2023-04-02T11:42:26;101913.47;;;9.38;42.92
49072;BME280;52656;52.610;10.236;2023-04-02T11:44:53;101923.22;;;9.35;41.92
49072;BME280;52656;52.610;10.236;2023-04-02T11:47:21;101921.66;;;9.23;42.44
49072;BME280;52656;52.610;10.236;2023-04-02T11:54:55;101933.41;;;8.34;44.96
49072;BME280;52656;52.610;10.236;2023-04-02T11:57:36;101951.22;;;8.12;45.35
49072;BME280;52656;52.610;10.236;2023-04-02T12:03:36;101929.91;;;9.02;44.34
49072;BME280;52656;52.610;10.236;2023-04-02T12:11:41;101948.72;;;8.79;43.80
49072;BME280;52656;52.610;10.236;2023-04-02T12:17:27;101958.38;;;8.01;44.17
49072;BME280;52656;52.610;10.236;2023-04-02T12:22:34;101978.84;;;7.72;45.52
49072;BME280;52656;52.610;10.236;2023-04-02T12:30:34;101960.94;;;8.09;44.53
49072;BME280;52656;52.610;10.236;2023-04-02T12:35:44;101961.97;;;8.76;44.51
49072;BME280;52656;52.610;10.236;2023-04-02T12:38:25;101966.56;;;8.60;44.21
49072;BME280;52656;52.610;10.236;2023-04-02T12:41:00;101972.94;;;8.42;44.32
49072;BME280;52656;52.610;10.236;2023-04-02T12:43:35;101987.03;;;8.39;44.66
49072;BME280;52656;52.610;10.236;2023-04-02T12:46:04;101984.25;;;8.53;45.02
49072;BME280;52656;52.610;10.236;2023-04-02T12:48:30;101988.75;;;8.44;44.88
49072;BME280;52656;52.610;10.236;2023-04-02T12:50:57;101992.28;;;8.46;43.93
49072;BME280;52656;52.610;10.236;2023-04-02T12:53:37;101996.22;;;7.99;44.03
49072;BME280;52656;52.610;10.236;2023-04-02T12:56:03;101992.72;;;7.94;44.71
49072;BME280;52656;52.610;10.236;2023-04-02T12:59:02;101991.78;;;8.04;44.48
49072;BME280;52656;52.610;10.236;2023-04-02T13:01:22;101978.53;;;8.10;44.69
49072;BME280;52656;52.610;10.236;2023-04-02T13:04:08;101975.72;;;8.28;44.36
49072;BME280;52656;52.610;10.236;2023-04-02T13:06:37;101970.38;;;8.36;43.99
49072;BME280;52656;52.610;10.236;2023-04-02T13:09:05;101982.00;;;8.12;43.58
49072;BME280;52656;52.610;10.236;2023-04-02T13:11:36;101970.50;;;8.21;42.97
49072;BME280;52656;52.610;10.236;2023-04-02T13:14:06;101978.94;;;8.56;43.15
49072;BME280;52656;52.610;10.236;2023-04-02T13:16:35;101972.63;;;8.70;42.63
49072;BME280;52656;52.610;10.236;2023-04-02T13:19:32;101977.31;;;8.46;43.20
49072;BME280;52656;52.610;10.236;2023-04-02T13:22:00;101977.03;;;8.69;43.30
49072;BME280;52656;52.610;10.236;2023-04-02T13:24:28;101986.13;;;8.42;43.08
49072;BME280;52656;52.610;10.236;2023-04-02T13:26:56;101979.69;;;8.66;41.48
49072;BME280;52656;52.610;10.236;2023-04-02T13:29:26;101975.88;;;8.88;41.82
49072;BME280;52656;52.610;10.236;2023-04-02T13:31:55;101986.88;;;8.55;41.84
49072;BME280;52656;52.610;10.236;2023-04-02T13:34:21;101993.00;;;8.57;42.18
49072;BME280;52656;52.610;10.236;2023-04-02T13:36:47;101998.81;;;8.03;42.41
49072;BME280;52656;52.610;10.236;2023-04-02T13:39:13;102002.66;;;7.65;42.31
49072;BME280;52656;52.610;10.236;2023-04-02T13:41:47;101997.38;;;7.65;43.42
49072;BME280;52656;52.610;10.236;2023-04-02T13:44:19;101992.69;;;8.01;43.61
49072;BME280;52656;52.610;10.236;2023-04-02T13:46:45;101994.25;;;8.22;43.67
49072;BME280;52656;52.610;10.236;2023-04-02T13:49:10;101997.72;;;8.29;44.26
49072;BME280;52656;52.610;10.236;2023-04-02T13:51:38;102002.53;;;7.82;43.58
49072;BME280;52656;52.610;10.236;2023-04-02T13:54:15;102020.72;;;8.13;43.70
49072;BME280;52656;52.610;10.236;2023-04-02T13:56:42;102012.78;;;8.14;41.61
49072;BME280;52656;52.610;10.236;2023-04-02T13:59:07;101997.81;;;8.15;41.52
49072;BME280;52656;52.610;10.236;2023-04-02T14:01:33;102008.41;;;8.13;41.28
49072;BME280;52656;52.610;10.236;2023-04-02T14:03:59;102000.09;;;8.53;42.40
49072;BME280;52656;52.610;10.236;2023-04-02T14:35:47;102033.84;;;8.22;44.14
49072;BME280;52656;52.610;10.236;2023-04-02T14:46:09;102034.59;;;8.35;42.29
49072;BME280;52656;52.610;10.236;2023-04-02T14:51:46;102035.59;;;9.05;41.08
49072;BME280;52656;52.610;10.236;2023-04-02T14:57:21;102044.44;;;9.01;42.05
49072;BME280;52656;52.610;10.236;2023-04-02T15:00:06;102044.41;;;9.05;41.28
49072;BME280;52656;52.610;10.236;2023-04-02T15:08:04;102054.59;;;8.63;42.35
49072;BME280;52656;52.610;10.236;2023-04-02T15:10:55;102058.00;;;8.73;42.92
49072;BME280;52656;52.610;10.236;2023-04-02T15:14:06;102058.16;;;8.56;42.61
49072;BME280;52656;52.610;10.236;2023-04-02T15:16:36;102066.88;;;8.68;42.69
49072;BME280;52656;52.610;10.236;2023-04-02T15:19:04;102069.66;;;8.51;43.26
49072;BME280;52656;52.610;10.236;2023-04-02T15:30:18;102085.88;;;8.03;42.48
49072;BME280;52656;52.610;10.236;2023-04-02T15:32:45;102093.94;;;7.85;42.52
49072;BME280;52656;52.610;10.236;2023-04-02T15:42:53;102091.53;;;7.51;44.45
49072;BME280;52656;52.610;10.236;2023-04-02T15:45:24;102087.00;;;7.70;43.50
49072;BME280;52656;52.610;10.236;2023-04-02T15:50:57;102085.13;;;7.89;44.11
49072;BME280;52656;52.610;10.236;2023-04-02T15:53:41;102091.25;;;7.89;43.77
49072;BME280;52656;52.610;10.236;2023-04-02T15:56:25;102100.06;;;7.90;43.47
49072;BME280;52656;52.610;10.236;2023-04-02T16:04:39;102110.47;;;8.13;43.61
49072;BME280;52656;52.610;10.236;2023-04-02T16:07:29;;;;8.15;
49072;BME280;52656;52.610;10.236;2023-04-02T16:10:11;102122.03;;;7.95;42.26
49072;BME280;52656;52.610;10.236;2023-04-02T16:12:40;102131.78;;;7.79;43.98
49072;BME280;52656;52.610;10.236;2023-04-02T16:15:16;102132.81;;;7.58;44.39
49072;BME280;52656;52.610;10.236;2023-04-02T16:17:45;102132.00;;;7.41;44.22
49072;BME280;52656;52.610;10.236;2023-04-02T16:20:23;102145.25;;;7.27;45.28
49072;BME280;52656;52.610;10.236;2023-04-02T16:23:12;102145.25;;;7.21;46.03
49072;BME280;52656;52.610;10.236;2023-04-02T16:25:53;102145.19;;;7.38;45.57
49072;BME280;52656;52.610;10.236;2023-04-02T16:28:33;102149.53;;;7.48;45.00
49072;BME280;52656;52.610;10.236;2023-04-02T16:38:58;102168.81;;;7.61;45.35
49072;BME280;52656;52.610;10.236;2023-04-02T16:44:42;102187.31;;;7.52;43.86
49072;BME280;52656;52.610;10.236;2023-04-02T16:53:00;102192.63;;;7.38;44.75